Flight Track Log - Related Links

Times and Time Zones

All times are in EDT time to prevent confusion due to time zone crossing. See the EJA396 flight status page for this flight to view local times or setup timezone preferences in your user account.


Time Position Orientation Groundspeed Altitude Reporting Facility
EDT Latitude Longitude Course Direction KTS MPH feet Rate Location/Type
Mon 02:37:25 PM 33.6167 -111.9333 301° West 169 194 2,500  Level Phoenix TRACON
Mon 02:38:07 PM 33.6333 -111.9667 301° West 207 238 3,900 1,926 Climbing Phoenix TRACON
Mon 02:38:46 PM 33.6381 -112.0131 277° West 208 239 5,100 1,188 Climbing Albuquerque Center
Mon 02:39:48 PM 33.6614 -112.0808 292° West 218 251 5,900 634 Climbing Albuquerque Center
Mon 02:40:49 PM 33.7050 -112.1333 315° West 238 274 6,400 1,366 Climbing Albuquerque Center
Mon 02:41:51 PM 33.7742 -112.1775 332° Northwest 279 321 8,700 2,634 Climbing Albuquerque Center
Mon 02:42:52 PM 33.8494 -112.2225 334° Northwest 298 343 11,800 2,927 Climbing Albuquerque Center
Mon 02:43:54 PM 33.9314 -112.2739 333° Northwest 326 375 14,700 2,613 Climbing Albuquerque Center
Mon 02:44:56 PM 34.0206 -112.3297 333° Northwest 358 412 17,200 2,585 Climbing Albuquerque Center
Mon 02:45:57 PM 34.1333 -112.4006 333° Northwest 380 437 20,000 2,244 Climbing Albuquerque Center
Mon 02:46:59 PM 34.2336 -112.4603 334° Northwest 398 458 21,800 1,742 Climbing Albuquerque Center
Mon 02:48:01 PM 34.3183 -112.5494 319° Northwest 408 470 23,600 1,756 Climbing Albuquerque Center
Mon 02:49:02 PM 34.3797 -112.6678 302° West 414 476 25,400 1,756 Climbing Albuquerque Center
Mon 02:50:04 PM 34.4411 -112.7883 302° West 420 483 27,200 1,839 Climbing Albuquerque Center
Mon 02:51:06 PM 34.5142 -112.9269 303° West 427 491 29,200 1,707 Climbing Albuquerque Center
Mon 02:52:07 PM 34.5778 -113.0508 302° West 432 497 30,700 1,463 Climbing Albuquerque Center
Mon 02:53:09 PM 34.6417 -113.1775 302° West 437 503 32,200 1,452 Climbing Albuquerque Center
Mon 02:54:11 PM 34.7053 -113.3025 302° West 438 504 33,700 1,463 Climbing Albuquerque Center
Mon 02:55:12 PM 34.7700 -113.4242 303° West 432 497 35,200 1,122 Climbing Albuquerque Center
Mon 02:56:14 PM 34.8461 -113.5411 308° West 438 504 36,000 387 Climbing Albuquerque Center
Mon 02:57:16 PM 34.9222 -113.6631 307° West 448 516 36,000 244 Level Albuquerque Center
Mon 02:58:17 PM 34.9994 -113.7844 308° West 451 519 36,500 488 Climbing Albuquerque Center
Mon 02:59:19 PM 35.0906 -113.9297 307° West 451 519 37,000 313 Climbing Albuquerque Center
Mon 03:00:31 PM 35.1792 -114.0689 308° West 457 526 37,200 448 Climbing Los Angeles Center
Mon 03:01:33 PM 35.2558 -114.1900 308° West 452 520 38,000 387 Climbing Los Angeles Center
Mon 03:02:35 PM 35.3328 -114.3119 308° West 452 520 38,000  Level Los Angeles Center
Mon 03:03:37 PM 35.4242 -114.4597 307° West 452 520 38,000  Level Los Angeles Center
Mon 03:04:39 PM 35.5008 -114.5861 307° West 460 529 38,000  Level Los Angeles Center
Mon 03:05:41 PM 35.5781 -114.7103 307° West 458 527 38,000  Level Los Angeles Center
Mon 03:06:43 PM 35.6556 -114.8358 307° West 460 529 38,000  Level Los Angeles Center
Mon 03:07:45 PM 35.7322 -114.9589 308° West 454 522 38,000  Level Los Angeles Center
Mon 03:08:47 PM 35.8083 -115.0831 307° West 453 521 38,000  Level Los Angeles Center
Mon 03:09:49 PM 35.9003 -115.2342 307° West 458 527 38,000  Level Los Angeles Center
Mon 03:10:51 PM 35.9775 -115.3614 307° West 460 529 38,000  Level Los Angeles Center
Mon 03:11:53 PM 36.0356 -115.4969 298° West 447 514 38,000  Level Los Angeles Center
Mon 03:12:55 PM 36.0758 -115.6442 289° West 445 512 38,000  Level Los Angeles Center
Mon 03:13:57 PM 36.1164 -115.7919 289° West 446 513 38,000  Level Los Angeles Center
Mon 03:14:59 PM 36.1825 -115.9300 301° West 457 526 38,000  Level Los Angeles Center
Mon 03:16:00 PM 36.2464 -116.0667 300° West 457 526 38,000  Level Los Angeles Center
Mon 03:17:02 PM 36.3100 -116.2017 300° West 455 524 38,000  Level Los Angeles Center
Mon 03:18:04 PM 36.3761 -116.3389 301° West 451 519 38,000  Level Los Angeles Center
Mon 03:19:06 PM 36.4394 -116.4756 300° West 455 524 38,000  Level Los Angeles Center
Mon 03:20:08 PM 36.5033 -116.6106 301° West 456 525 38,000  Level Los Angeles Center
Mon 03:21:10 PM 36.5697 -116.7753 297° West 458 527 38,000  Level Los Angeles Center
Mon 03:22:12 PM 36.6011 -116.9242 285° West 448 516 38,000  Level Los Angeles Center
Mon 03:23:14 PM 36.6289 -117.0675 284° West 437 503 38,000  Level Los Angeles Center
Mon 03:24:16 PM 36.6578 -117.2153 284° West 438 504 38,000  Level Los Angeles Center
Mon 03:25:18 PM 36.6864 -117.3653 283° West 441 507 38,000  Level Los Angeles Center
Mon 03:26:20 PM 36.7211 -117.5469 283° West 445 512 38,000  Level Los Angeles Center
Mon 03:27:22 PM 36.7503 -117.6997 283° West 449 517 38,000  Level Los Angeles Center
Mon 03:27:52 PM 36.7608 -117.7658 281° West 453 521 38,000  Level Oakland Center
Mon 03:28:53 PM 36.7892 -117.9147 283° West 444 511 38,000  Level Oakland Center
Mon 03:29:26 PM 36.8069 -118.0064 284° West 446 513 38,000  Level Los Angeles Center
Mon 03:30:28 PM 36.8350 -118.1583 283° West 447 514 38,000  Level Los Angeles Center
Mon 03:31:30 PM 36.8633 -118.3122 283° West 453 521 38,000  Level Los Angeles Center
Mon 03:31:56 PM 36.8767 -118.3989 281° West 447 514 38,000 -409 Level Oakland Center
Mon 03:32:58 PM 36.8986 -118.5233 282° West 444 511 37,400 -1,220 Descending Oakland Center
Mon 03:33:59 PM 36.9311 -118.7028 283° West 446 513 35,500 -1,869 Descending Oakland Center
Mon 03:35:00 PM 36.9572 -118.8517 282° West 439 505 33,600 -1,869 Descending Oakland Center
Mon 03:36:01 PM 36.9836 -119.0044 282° West 450 518 31,700 -1,820 Descending Oakland Center
Mon 03:37:02 PM 37.0097 -119.1544 282° West 446 513 29,900 -1,756 Descending Oakland Center
Mon 03:38:04 PM 37.0367 -119.3078 282° West 452 520 28,100 -1,756 Descending Oakland Center
Mon 03:39:05 PM 37.0619 -119.4586 282° West 449 517 26,300 -1,770 Descending Oakland Center
Mon 03:40:06 PM 37.0875 -119.6053 282° West 438 504 24,500 -1,770 Descending Oakland Center
Mon 03:41:07 PM 37.1117 -119.7478 282° West 426 490 22,700 -1,707 Descending Oakland Center
Mon 03:42:09 PM 37.1372 -119.8881 283° West 415 478 21,000 -1,512 Descending Oakland Center
Mon 03:43:10 PM 37.1614 -120.0461 281° West 384 442 19,600 -1,426 Descending Oakland Center
Mon 03:44:11 PM 37.1811 -120.1644 282° West 351 404 18,100 -1,463 Descending Oakland Center
Mon 03:45:13 PM 37.1964 -120.2767 280° West 320 368 16,600 -1,561 Descending Oakland Center
Mon 03:46:14 PM 37.2150 -120.3919 281° West 335 386 14,900 -1,558 Descending Oakland Center
Mon 03:46:57 PM 37.2000 -120.4833 258° West 405 466 13,900 -1,340 Descending Northern Cal TRACON
Mon 03:47:57 PM 37.1833 -120.6000 260° West 340 391 12,600 -1,350 Descending Northern Cal TRACON
Mon 03:48:57 PM 37.1500 -120.7000 247° West 316 364 11,200 -1,300 Descending Northern Cal TRACON
Mon 03:49:57 PM 37.1333 -120.8167 260° West 318 366 10,000 -571 Descending Northern Cal TRACON
Mon 03:51:03 PM 37.1000 -120.9333 250° West 327 376 10,000  Level Northern Cal TRACON
Mon 03:51:20 PM 37.1025 -120.9469 283° West 310 357 10,000  Level Oakland Center
Mon 03:52:22 PM 37.0775 -121.0628 255° West 336 387 10,000  Level Oakland Center
Mon 03:53:23 PM 37.0500 -121.1839 254° West 337 388 10,000 -98 Level Oakland Center
Mon 03:54:24 PM 37.0317 -121.2978 259° West 338 389 9,800 -689 Descending Oakland Center
Mon 03:55:25 PM 37.0364 -121.3953 274° West 291 335 8,600 -878 Descending Oakland Center
Mon 03:56:27 PM 37.0414 -121.4886 274° West 271 312 8,000 -293 Descending Oakland Center
Mon 03:57:28 PM 37.0458 -121.5828 273° West 272 313 8,000 -49 Level Oakland Center
Mon 03:58:29 PM 37.0514 -121.6936 274° West 269 310 7,900 -197 Descending Oakland Center
Mon 03:59:30 PM 37.0961 -121.7561 312° West 264 304 7,600 -766 Descending Oakland Center
Mon 04:00:03 PM 37.1333 -121.8000 317° Northwest 254 292 6,700 -1,574 Descending Northern Cal TRACON
Mon 04:00:31 PM 37.1486 -121.8208 313° West 254 292 6,000 -1,133 Descending Oakland Center
Mon 04:01:33 PM 37.1997 -121.8817 317° Northwest 253 291 5,000 -488 Descending Oakland Center
Mon 04:02:34 PM 37.2506 -121.9247 326° Northwest 228 262 5,000 -639 Level Oakland Center
Mon 04:03:35 PM 37.2975 -121.9744 320° Northwest 219 252 3,700 -984 Descending Oakland Center
Mon 04:04:36 PM 37.3414 -122.0286 316° Northwest 221 254 3,000 -634 Descending Oakland Center
Mon 04:05:38 PM 37.3856 -122.0758 320° Northwest 215 247 2,400 -323 Descending Oakland Center
Mon 04:06:09 PM 37.4167 -122.0500 33° Northeast 209 241 2,500 -282 Climbing Northern Cal TRACON
Mon 04:07:03 PM 37.4333 -122.0000 67° East 212 244 2,000 -1,053 Descending Northern Cal TRACON
Mon 04:08:03 PM 37.3833 -121.9500 142° Southeast 142 163 500 11,020 Descending Northern Cal TRACON
Mon 04:08:41 PM 37.3675 -121.9381 149° Southeast 149 171 20,000 30,789 Climbing Oakland Center
Mon 04:10:00 PM 37.3627 -121.9291 130° Southeast  Level Estimated

Login

Don't have an account? Register now (free) for customized features, flight alerts, and more!